sensor_id;sensor_type;location;lat;lon;timestamp;noise_LAeq;noise_LA_min;noise_LA_max;noise_LA01;noise_LA95
64996;Laerm;51545;51.568;6.998;2022-08-01T00:00:08;37.68;34.06;42.63;;
64996;Laerm;51545;51.568;6.998;2022-08-01T00:02:34;37.92;32.28;55.86;;
64996;Laerm;51545;51.568;6.998;2022-08-01T00:04:59;38.11;32.86;54.18;;
64996;Laerm;51545;51.568;6.998;2022-08-01T00:07:29;38.49;34.12;42.92;;
64996;Laerm;51545;51.568;6.998;2022-08-01T00:09:55;38.42;33.94;42.55;;
64996;Laerm;51545;51.568;6.998;2022-08-01T00:12:20;37.11;32.96;48.83;;
64996;Laerm;51545;51.568;6.998;2022-08-01T00:14:46;40.62;33.87;58.13;;
64996;Laerm;51545;51.568;6.998;2022-08-01T00:17:12;42.95;36.64;62.81;;
64996;Laerm;51545;51.568;6.998;2022-08-01T00:19:37;39.80;33.49;67.26;;
64996;Laerm;51545;51.568;6.998;2022-08-01T00:22:03;44.02;34.70;61.55;;
64996;Laerm;51545;51.568;6.998;2022-08-01T00:24:28;39.64;33.34;56.57;;
64996;Laerm;51545;51.568;6.998;2022-08-01T00:26:54;38.29;33.03;56.06;;
64996;Laerm;51545;51.568;6.998;2022-08-01T00:29:19;38.76;34.16;45.01;;
64996;Laerm;51545;51.568;6.998;2022-08-01T00:31:45;40.01;34.21;56.35;;
64996;Laerm;51545;51.568;6.998;2022-08-01T00:34:10;39.77;33.61;45.71;;
64996;Laerm;51545;51.568;6.998;2022-08-01T00:36:36;37.28;31.65;54.43;;
64996;Laerm;51545;51.568;6.998;2022-08-01T00:39:02;40.15;34.51;54.75;;
64996;Laerm;51545;51.568;6.998;2022-08-01T00:41:27;38.86;33.02;46.42;;
64996;Laerm;51545;51.568;6.998;2022-08-01T00:43:53;39.68;33.76;53.83;;
64996;Laerm;51545;51.568;6.998;2022-08-01T00:46:19;40.52;34.84;48.63;;
64996;Laerm;51545;51.568;6.998;2022-08-01T00:48:45;37.62;34.07;53.17;;
64996;Laerm;51545;51.568;6.998;2022-08-01T00:51:11;38.75;33.85;52.67;;
64996;Laerm;51545;51.568;6.998;2022-08-01T00:53:38;40.71;34.49;64.30;;
64996;Laerm;51545;51.568;6.998;2022-08-01T00:56:04;40.79;32.77;58.45;;
64996;Laerm;51545;51.568;6.998;2022-08-01T00:58:31;42.43;34.61;58.99;;
64996;Laerm;51545;51.568;6.998;2022-08-01T01:00:58;38.72;32.74;54.36;;
64996;Laerm;51545;51.568;6.998;2022-08-01T01:03:24;38.56;33.29;45.02;;
64996;Laerm;51545;51.568;6.998;2022-08-01T01:06:16;38.63;32.55;49.05;;
64996;Laerm;51545;51.568;6.998;2022-08-01T01:09:11;40.12;34.05;47.93;;
64996;Laerm;51545;51.568;6.998;2022-08-01T01:12:02;39.09;33.65;50.87;;
64996;Laerm;51545;51.568;6.998;2022-08-01T01:14:34;37.71;32.42;56.74;;
64996;Laerm;51545;51.568;6.998;2022-08-01T01:17:03;41.62;36.49;62.61;;
64996;Laerm;51545;51.568;6.998;2022-08-01T01:19:30;39.59;34.66;60.36;;
64996;Laerm;51545;51.568;6.998;2022-08-01T01:22:24;38.24;33.69;53.62;;
64996;Laerm;51545;51.568;6.998;2022-08-01T01:25:08;39.79;35.19;56.69;;
64996;Laerm;51545;51.568;6.998;2022-08-01T01:30:30;40.78;36.13;59.88;;
64996;Laerm;51545;51.568;6.998;2022-08-01T01:33:00;40.61;35.43;60.76;;
64996;Laerm;51545;51.568;6.998;2022-08-01T01:35:31;40.14;34.45;60.91;;
64996;Laerm;51545;51.568;6.998;2022-08-01T01:38:04;40.18;34.53;48.15;;
64996;Laerm;51545;51.568;6.998;2022-08-01T01:40:33;40.92;35.53;47.38;;
64996;Laerm;51545;51.568;6.998;2022-08-01T01:42:59;38.19;34.56;53.97;;
64996;Laerm;51545;51.568;6.998;2022-08-01T01:45:25;38.77;34.12;48.06;;
64996;Laerm;51545;51.568;6.998;2022-08-01T01:47:52;39.17;34.66;48.04;;
64996;Laerm;51545;51.568;6.998;2022-08-01T01:50:22;38.54;34.54;44.62;;
64996;Laerm;51545;51.568;6.998;2022-08-01T01:52:49;40.60;36.80;56.17;;
64996;Laerm;51545;51.568;6.998;2022-08-01T01:55:18;38.92;34.68;49.15;;
64996;Laerm;51545;51.568;6.998;2022-08-01T01:57:45;38.89;34.83;43.85;;
64996;Laerm;51545;51.568;6.998;2022-08-01T02:00:12;40.23;35.29;50.26;;
64996;Laerm;51545;51.568;6.998;2022-08-01T02:02:39;41.93;37.44;49.11;;
64996;Laerm;51545;51.568;6.998;2022-08-01T02:05:07;42.15;36.88;58.25;;
64996;Laerm;51545;51.568;6.998;2022-08-01T02:07:34;46.58;39.37;63.41;;
64996;Laerm;51545;51.568;6.998;2022-08-01T02:10:02;50.60;42.59;64.09;;
64996;Laerm;51545;51.568;6.998;2022-08-01T02:12:29;49.39;39.52;67.41;;
64996;Laerm;51545;51.568;6.998;2022-08-01T02:14:58;46.33;38.43;61.43;;
64996;Laerm;51545;51.568;6.998;2022-08-01T02:17:26;45.77;41.55;62.14;;
64996;Laerm;51545;51.568;6.998;2022-08-01T02:19:53;47.83;40.61;65.97;;
64996;Laerm;51545;51.568;6.998;2022-08-01T02:22:37;50.51;42.14;67.67;;
64996;Laerm;51545;51.568;6.998;2022-08-01T02:25:11;45.03;39.35;62.61;;
64996;Laerm;51545;51.568;6.998;2022-08-01T02:28:59;43.43;39.00;64.14;;
64996;Laerm;51545;51.568;6.998;2022-08-01T02:30:54;42.59;37.75;63.46;;
64996;Laerm;51545;51.568;6.998;2022-08-01T02:33:24;41.71;36.35;55.13;;
64996;Laerm;51545;51.568;6.998;2022-08-01T02:35:56;41.00;35.95;54.84;;
64996;Laerm;51545;51.568;6.998;2022-08-01T02:38:24;41.30;36.66;47.33;;
64996;Laerm;51545;51.568;6.998;2022-08-01T02:40:52;41.27;36.57;48.87;;
64996;Laerm;51545;51.568;6.998;2022-08-01T02:43:21;40.64;35.87;46.41;;
64996;Laerm;51545;51.568;6.998;2022-08-01T02:45:52;40.50;36.84;48.70;;
64996;Laerm;51545;51.568;6.998;2022-08-01T02:48:19;41.03;37.24;47.20;;
64996;Laerm;51545;51.568;6.998;2022-08-01T02:50:48;41.44;36.35;47.04;;
64996;Laerm;51545;51.568;6.998;2022-08-01T02:53:16;41.64;36.84;46.00;;
64996;Laerm;51545;51.568;6.998;2022-08-01T02:55:43;40.13;35.86;45.44;;
64996;Laerm;51545;51.568;6.998;2022-08-01T02:58:11;39.83;34.98;45.39;;
64996;Laerm;51545;51.568;6.998;2022-08-01T03:00:38;41.48;36.70;52.14;;
64996;Laerm;51545;51.568;6.998;2022-08-01T03:03:06;41.75;36.93;46.92;;
64996;Laerm;51545;51.568;6.998;2022-08-01T03:05:34;40.43;36.18;59.70;;
64996;Laerm;51545;51.568;6.998;2022-08-01T03:08:00;41.82;36.91;45.90;;
64996;Laerm;51545;51.568;6.998;2022-08-01T03:10:28;41.48;36.76;45.10;;
64996;Laerm;51545;51.568;6.998;2022-08-01T03:12:55;41.39;37.97;45.78;;
64996;Laerm;51545;51.568;6.998;2022-08-01T03:15:24;44.71;37.45;60.76;;
64996;Laerm;51545;51.568;6.998;2022-08-01T03:17:52;46.27;39.21;61.84;;
64996;Laerm;51545;51.568;6.998;2022-08-01T03:20:21;46.28;37.67;64.14;;
64996;Laerm;51545;51.568;6.998;2022-08-01T03:22:50;42.25;38.48;48.20;;
64996;Laerm;51545;51.568;6.998;2022-08-01T03:25:18;41.30;37.79;54.69;;
64996;Laerm;51545;51.568;6.998;2022-08-01T03:27:48;42.21;37.21;49.07;;
64996;Laerm;51545;51.568;6.998;2022-08-01T03:30:15;42.13;37.80;46.14;;
64996;Laerm;51545;51.568;6.998;2022-08-01T03:32:41;42.04;38.40;49.17;;
64996;Laerm;51545;51.568;6.998;2022-08-01T03:35:07;43.53;39.59;48.29;;
64996;Laerm;51545;51.568;6.998;2022-08-01T03:37:37;41.46;37.88;47.53;;
64996;Laerm;51545;51.568;6.998;2022-08-01T03:42:50;43.27;38.64;53.02;;
64996;Laerm;51545;51.568;6.998;2022-08-01T03:45:27;42.81;38.61;51.69;;
64996;Laerm;51545;51.568;6.998;2022-08-01T03:47:59;43.30;38.40;47.66;;
64996;Laerm;51545;51.568;6.998;2022-08-01T03:50:26;43.38;39.67;66.33;;
64996;Laerm;51545;51.568;6.998;2022-08-01T03:52:53;42.49;38.01;52.36;;
64996;Laerm;51545;51.568;6.998;2022-08-01T03:55:20;45.83;37.85;59.43;;
64996;Laerm;51545;51.568;6.998;2022-08-01T03:57:47;42.18;36.97;54.98;;
64996;Laerm;51545;51.568;6.998;2022-08-01T04:00:14;43.84;38.87;54.08;;
64996;Laerm;51545;51.568;6.998;2022-08-01T04:02:45;44.32;38.18;56.66;;
64996;Laerm;51545;51.568;6.998;2022-08-01T04:05:11;48.31;37.82;69.74;;
64996;Laerm;51545;51.568;6.998;2022-08-01T04:07:37;44.91;38.42;60.08;;
64996;Laerm;51545;51.568;6.998;2022-08-01T04:10:05;44.50;39.56;60.42;;
64996;Laerm;51545;51.568;6.998;2022-08-01T04:12:31;43.97;39.09;57.76;;
64996;Laerm;51545;51.568;6.998;2022-08-01T04:14:57;43.79;38.38;58.59;;
64996;Laerm;51545;51.568;6.998;2022-08-01T04:17:23;44.47;39.10;56.12;;
64996;Laerm;51545;51.568;6.998;2022-08-01T04:19:50;42.91;37.54;49.65;;
64996;Laerm;51545;51.568;6.998;2022-08-01T04:22:15;43.12;37.94;48.93;;
64996;Laerm;51545;51.568;6.998;2022-08-01T04:24:44;43.29;39.09;50.31;;
64996;Laerm;51545;51.568;6.998;2022-08-01T04:27:18;42.54;38.34;48.55;;
64996;Laerm;51545;51.568;6.998;2022-08-01T04:29:47;42.52;39.33;47.90;;
64996;Laerm;51545;51.568;6.998;2022-08-01T04:32:16;41.88;36.93;45.42;;
64996;Laerm;51545;51.568;6.998;2022-08-01T04:34:43;42.04;37.41;48.99;;
64996;Laerm;51545;51.568;6.998;2022-08-01T04:37:12;42.81;38.89;58.09;;
64996;Laerm;51545;51.568;6.998;2022-08-01T04:39:40;42.57;38.97;56.20;;
64996;Laerm;51545;51.568;6.998;2022-08-01T04:42:07;43.37;39.31;57.85;;
64996;Laerm;51545;51.568;6.998;2022-08-01T04:44:33;42.54;38.31;52.06;;
64996;Laerm;51545;51.568;6.998;2022-08-01T04:47:03;42.21;37.34;52.58;;
64996;Laerm;51545;51.568;6.998;2022-08-01T04:49:36;42.22;36.96;49.04;;
64996;Laerm;51545;51.568;6.998;2022-08-01T04:52:02;43.01;37.87;53.70;;
64996;Laerm;51545;51.568;6.998;2022-08-01T04:54:29;44.37;38.60;61.90;;
64996;Laerm;51545;51.568;6.998;2022-08-01T04:56:55;44.29;38.92;61.92;;
64996;Laerm;51545;51.568;6.998;2022-08-01T04:59:28;42.25;37.74;57.58;;
64996;Laerm;51545;51.568;6.998;2022-08-01T05:02:10;41.50;36.27;49.99;;
64996;Laerm;51545;51.568;6.998;2022-08-01T05:04:37;42.90;37.96;52.95;;
64996;Laerm;51545;51.568;6.998;2022-08-01T05:07:03;42.40;38.56;50.25;;
64996;Laerm;51545;51.568;6.998;2022-08-01T05:09:29;42.54;37.95;54.61;;
64996;Laerm;51545;51.568;6.998;2022-08-01T05:11:56;42.29;38.05;55.87;;
64996;Laerm;51545;51.568;6.998;2022-08-01T05:14:27;42.78;38.76;50.74;;
64996;Laerm;51545;51.568;6.998;2022-08-01T05:16:52;43.09;39.42;47.98;;
64996;Laerm;51545;51.568;6.998;2022-08-01T05:19:18;44.49;39.83;51.55;;
64996;Laerm;51545;51.568;6.998;2022-08-01T05:21:44;44.30;39.99;56.21;;
64996;Laerm;51545;51.568;6.998;2022-08-01T05:24:09;44.21;40.98;53.71;;
64996;Laerm;51545;51.568;6.998;2022-08-01T05:26:35;44.11;39.43;54.78;;
64996;Laerm;51545;51.568;6.998;2022-08-01T05:29:01;44.81;40.00;53.77;;
64996;Laerm;51545;51.568;6.998;2022-08-01T05:31:27;43.84;39.56;55.25;;
64996;Laerm;51545;51.568;6.998;2022-08-01T05:33:53;45.10;38.84;57.53;;
64996;Laerm;51545;51.568;6.998;2022-08-01T05:36:19;47.73;39.19;62.33;;
64996;Laerm;51545;51.568;6.998;2022-08-01T05:38:44;43.91;40.13;51.32;;
64996;Laerm;51545;51.568;6.998;2022-08-01T05:41:10;43.91;38.91;54.00;;
64996;Laerm;51545;51.568;6.998;2022-08-01T05:43:36;42.93;38.75;54.82;;
64996;Laerm;51545;51.568;6.998;2022-08-01T05:46:01;43.43;38.48;62.42;;
64996;Laerm;51545;51.568;6.998;2022-08-01T05:48:27;43.62;39.20;57.76;;
64996;Laerm;51545;51.568;6.998;2022-08-01T05:50:53;44.92;38.10;64.53;;
64996;Laerm;51545;51.568;6.998;2022-08-01T05:53:19;43.95;39.18;63.06;;
64996;Laerm;51545;51.568;6.998;2022-08-01T05:55:44;43.52;38.11;60.84;;
64996;Laerm;51545;51.568;6.998;2022-08-01T05:58:10;43.86;38.98;51.51;;
64996;Laerm;51545;51.568;6.998;2022-08-01T06:00:35;43.13;37.52;56.22;;
64996;Laerm;51545;51.568;6.998;2022-08-01T06:03:01;44.02;38.63;58.80;;
64996;Laerm;51545;51.568;6.998;2022-08-01T06:05:26;42.50;38.42;52.82;;
64996;Laerm;51545;51.568;6.998;2022-08-01T06:07:52;42.55;38.60;55.59;;
64996;Laerm;51545;51.568;6.998;2022-08-01T06:10:18;44.63;40.17;55.59;;
64996;Laerm;51545;51.568;6.998;2022-08-01T06:12:43;44.78;39.00;59.76;;
64996;Laerm;51545;51.568;6.998;2022-08-01T06:15:09;44.08;39.80;60.43;;
64996;Laerm;51545;51.568;6.998;2022-08-01T06:17:34;44.30;38.70;58.31;;
64996;Laerm;51545;51.568;6.998;2022-08-01T06:20:00;44.04;39.59;60.69;;
64996;Laerm;51545;51.568;6.998;2022-08-01T06:22:26;42.68;37.86;56.50;;
64996;Laerm;51545;51.568;6.998;2022-08-01T06:24:51;43.23;37.74;52.59;;
64996;Laerm;51545;51.568;6.998;2022-08-01T06:27:17;43.78;39.23;57.80;;
64996;Laerm;51545;51.568;6.998;2022-08-01T06:29:42;42.79;38.95;56.49;;
64996;Laerm;51545;51.568;6.998;2022-08-01T06:32:08;43.85;39.59;55.09;;
64996;Laerm;51545;51.568;6.998;2022-08-01T06:34:35;45.75;40.11;63.14;;
64996;Laerm;51545;51.568;6.998;2022-08-01T06:37:01;43.01;39.43;60.95;;
64996;Laerm;51545;51.568;6.998;2022-08-01T06:39:27;43.60;39.33;55.76;;
64996;Laerm;51545;51.568;6.998;2022-08-01T06:41:53;44.94;39.27;63.17;;
64996;Laerm;51545;51.568;6.998;2022-08-01T06:44:19;44.59;38.97;59.30;;
64996;Laerm;51545;51.568;6.998;2022-08-01T06:46:44;44.03;39.25;58.65;;
64996;Laerm;51545;51.568;6.998;2022-08-01T06:49:10;43.93;40.03;55.39;;
64996;Laerm;51545;51.568;6.998;2022-08-01T06:51:35;45.01;40.22;53.28;;
64996;Laerm;51545;51.568;6.998;2022-08-01T06:54:01;44.25;38.94;57.33;;
64996;Laerm;51545;51.568;6.998;2022-08-01T06:56:26;43.93;39.11;52.18;;
64996;Laerm;51545;51.568;6.998;2022-08-01T06:58:52;46.39;40.51;66.27;;
64996;Laerm;51545;51.568;6.998;2022-08-01T07:01:17;43.58;37.89;55.00;;
64996;Laerm;51545;51.568;6.998;2022-08-01T07:03:45;43.32;38.78;56.79;;
64996;Laerm;51545;51.568;6.998;2022-08-01T07:06:10;45.68;39.81;64.02;;
64996;Laerm;51545;51.568;6.998;2022-08-01T07:08:36;45.63;39.83;62.64;;
64996;Laerm;51545;51.568;6.998;2022-08-01T07:11:01;43.58;36.61;60.87;;
64996;Laerm;51545;51.568;6.998;2022-08-01T07:13:28;44.74;36.68;62.50;;
64996;Laerm;51545;51.568;6.998;2022-08-01T07:15:56;42.18;38.45;51.92;;
64996;Laerm;51545;51.568;6.998;2022-08-01T07:18:22;42.34;38.99;51.36;;
64996;Laerm;51545;51.568;6.998;2022-08-01T07:20:49;42.27;37.91;55.05;;
64996;Laerm;51545;51.568;6.998;2022-08-01T07:23:15;42.74;37.67;52.62;;
64996;Laerm;51545;51.568;6.998;2022-08-01T07:25:41;47.06;39.38;76.97;;
64996;Laerm;51545;51.568;6.998;2022-08-01T07:28:07;47.56;38.55;71.65;;
64996;Laerm;51545;51.568;6.998;2022-08-01T07:30:32;42.33;38.63;52.02;;
64996;Laerm;51545;51.568;6.998;2022-08-01T07:32:58;42.90;39.46;47.57;;
64996;Laerm;51545;51.568;6.998;2022-08-01T07:35:24;43.26;39.71;49.17;;
64996;Laerm;51545;51.568;6.998;2022-08-01T07:37:49;43.96;39.62;51.97;;
64996;Laerm;51545;51.568;6.998;2022-08-01T07:40:16;45.19;41.60;55.44;;
64996;Laerm;51545;51.568;6.998;2022-08-01T07:42:42;44.55;40.20;57.19;;
64996;Laerm;51545;51.568;6.998;2022-08-01T07:45:10;43.29;39.32;48.29;;
64996;Laerm;51545;51.568;6.998;2022-08-01T07:47:36;43.31;39.99;46.60;;
64996;Laerm;51545;51.568;6.998;2022-08-01T07:50:03;44.79;39.89;53.04;;
64996;Laerm;51545;51.568;6.998;2022-08-01T07:52:29;44.74;40.65;54.69;;
64996;Laerm;51545;51.568;6.998;2022-08-01T07:54:55;43.13;38.89;52.82;;
64996;Laerm;51545;51.568;6.998;2022-08-01T07:57:22;41.76;37.73;48.83;;
64996;Laerm;51545;51.568;6.998;2022-08-01T07:59:48;41.99;38.12;57.69;;
64996;Laerm;51545;51.568;6.998;2022-08-01T08:02:13;43.23;39.04;58.51;;
64996;Laerm;51545;51.568;6.998;2022-08-01T08:04:39;44.73;40.46;58.40;;
64996;Laerm;51545;51.568;6.998;2022-08-01T08:07:04;42.92;38.75;58.16;;
64996;Laerm;51545;51.568;6.998;2022-08-01T08:09:30;44.80;39.01;53.02;;
64996;Laerm;51545;51.568;6.998;2022-08-01T08:11:56;43.49;39.02;49.23;;
64996;Laerm;51545;51.568;6.998;2022-08-01T08:14:21;46.45;40.62;62.67;;
64996;Laerm;51545;51.568;6.998;2022-08-01T08:16:48;45.97;39.71;62.30;;
64996;Laerm;51545;51.568;6.998;2022-08-01T08:19:13;45.70;41.75;60.33;;
64996;Laerm;51545;51.568;6.998;2022-08-01T08:21:39;44.88;39.31;55.14;;
64996;Laerm;51545;51.568;6.998;2022-08-01T08:24:06;44.57;40.21;57.58;;
64996;Laerm;51545;51.568;6.998;2022-08-01T08:26:54;44.21;39.40;58.21;;
64996;Laerm;51545;51.568;6.998;2022-08-01T08:29:20;43.43;39.03;58.90;;
64996;Laerm;51545;51.568;6.998;2022-08-01T08:31:46;44.32;39.53;59.46;;
64996;Laerm;51545;51.568;6.998;2022-08-01T08:34:12;44.31;39.65;61.47;;
64996;Laerm;51545;51.568;6.998;2022-08-01T08:36:38;47.60;42.67;61.39;;
64996;Laerm;51545;51.568;6.998;2022-08-01T08:39:04;48.59;42.32;65.27;;
64996;Laerm;51545;51.568;6.998;2022-08-01T08:41:30;48.31;42.66;64.06;;
64996;Laerm;51545;51.568;6.998;2022-08-01T08:43:56;47.20;41.09;60.02;;
64996;Laerm;51545;51.568;6.998;2022-08-01T08:46:26;47.06;40.95;62.64;;
64996;Laerm;51545;51.568;6.998;2022-08-01T08:48:53;45.14;40.32;57.49;;
64996;Laerm;51545;51.568;6.998;2022-08-01T08:51:19;47.04;41.04;63.64;;
64996;Laerm;51545;51.568;6.998;2022-08-01T08:53:46;51.25;40.98;72.83;;
64996;Laerm;51545;51.568;6.998;2022-08-01T08:56:13;46.39;40.73;63.81;;
64996;Laerm;51545;51.568;6.998;2022-08-01T08:58:39;48.80;41.23;73.77;;
64996;Laerm;51545;51.568;6.998;2022-08-01T09:01:06;45.89;40.37;53.78;;
64996;Laerm;51545;51.568;6.998;2022-08-01T09:03:33;46.53;42.63;54.84;;
64996;Laerm;51545;51.568;6.998;2022-08-01T09:05:59;44.84;40.58;52.06;;
64996;Laerm;51545;51.568;6.998;2022-08-01T09:08:25;44.46;40.25;50.69;;
64996;Laerm;51545;51.568;6.998;2022-08-01T09:10:51;44.19;39.94;57.90;;
64996;Laerm;51545;51.568;6.998;2022-08-01T09:13:17;52.34;40.76;75.15;;
64996;Laerm;51545;51.568;6.998;2022-08-01T09:15:47;49.16;39.43;62.20;;
64996;Laerm;51545;51.568;6.998;2022-08-01T09:18:35;47.62;41.12;59.19;;
64996;Laerm;51545;51.568;6.998;2022-08-01T09:23:47;44.24;38.95;55.78;;
64996;Laerm;51545;51.568;6.998;2022-08-01T09:26:15;43.78;39.32;57.27;;
64996;Laerm;51545;51.568;6.998;2022-08-01T09:28:42;45.05;40.10;54.80;;
64996;Laerm;51545;51.568;6.998;2022-08-01T09:31:10;45.61;41.38;59.92;;
64996;Laerm;51545;51.568;6.998;2022-08-01T09:33:53;44.15;39.46;64.33;;
64996;Laerm;51545;51.568;6.998;2022-08-01T09:36:21;47.68;41.08;68.88;;
64996;Laerm;51545;51.568;6.998;2022-08-01T09:38:47;47.49;39.70;65.42;;
64996;Laerm;51545;51.568;6.998;2022-08-01T09:41:13;46.06;39.40;67.75;;
64996;Laerm;51545;51.568;6.998;2022-08-01T09:43:38;42.01;36.88;55.99;;
64996;Laerm;51545;51.568;6.998;2022-08-01T09:46:09;52.53;38.82;74.48;;
64996;Laerm;51545;51.568;6.998;2022-08-01T09:48:35;47.23;41.34;58.10;;
64996;Laerm;51545;51.568;6.998;2022-08-01T09:51:05;46.32;41.59;52.78;;
64996;Laerm;51545;51.568;6.998;2022-08-01T09:53:43;45.86;39.96;62.09;;
64996;Laerm;51545;51.568;6.998;2022-08-01T09:56:10;45.06;41.10;54.00;;
64996;Laerm;51545;51.568;6.998;2022-08-01T09:58:56;46.63;43.10;63.64;;
64996;Laerm;51545;51.568;6.998;2022-08-01T10:01:22;45.38;41.50;58.22;;
64996;Laerm;51545;51.568;6.998;2022-08-01T10:04:18;45.08;39.10;50.46;;
64996;Laerm;51545;51.568;6.998;2022-08-01T10:06:46;44.57;39.93;53.72;;
64996;Laerm;51545;51.568;6.998;2022-08-01T10:09:27;43.56;39.22;49.37;;
64996;Laerm;51545;51.568;6.998;2022-08-01T10:11:54;44.76;39.60;53.19;;
64996;Laerm;51545;51.568;6.998;2022-08-01T10:14:21;44.27;39.95;49.55;;
64996;Laerm;51545;51.568;6.998;2022-08-01T10:16:47;43.39;39.90;52.53;;
64996;Laerm;51545;51.568;6.998;2022-08-01T10:19:15;43.63;39.37;54.47;;
64996;Laerm;51545;51.568;6.998;2022-08-01T10:21:41;43.41;38.71;58.42;;
64996;Laerm;51545;51.568;6.998;2022-08-01T10:24:07;44.24;40.48;58.67;;
64996;Laerm;51545;51.568;6.998;2022-08-01T10:26:36;43.96;38.59;59.58;;
64996;Laerm;51545;51.568;6.998;2022-08-01T10:29:04;45.43;41.76;56.62;;
64996;Laerm;51545;51.568;6.998;2022-08-01T10:31:31;45.02;40.05;61.98;;
64996;Laerm;51545;51.568;6.998;2022-08-01T10:33:59;45.71;40.78;55.93;;
64996;Laerm;51545;51.568;6.998;2022-08-01T10:36:25;47.39;40.23;64.90;;
64996;Laerm;51545;51.568;6.998;2022-08-01T10:38:51;44.45;40.11;53.04;;
64996;Laerm;51545;51.568;6.998;2022-08-01T10:41:18;44.57;40.09;53.56;;
64996;Laerm;51545;51.568;6.998;2022-08-01T10:43:44;45.58;40.03;53.41;;
64996;Laerm;51545;51.568;6.998;2022-08-01T10:46:09;42.24;38.41;48.50;;
64996;Laerm;51545;51.568;6.998;2022-08-01T10:51:23;41.73;37.40;60.06;;
64996;Laerm;51545;51.568;6.998;2022-08-01T10:53:53;42.64;38.63;60.21;;
64996;Laerm;51545;51.568;6.998;2022-08-01T10:56:19;44.25;39.51;55.17;;
64996;Laerm;51545;51.568;6.998;2022-08-01T10:58:46;42.21;37.73;59.13;;
64996;Laerm;51545;51.568;6.998;2022-08-01T11:01:19;43.40;39.27;50.08;;
64996;Laerm;51545;51.568;6.998;2022-08-01T11:06:39;43.47;38.41;50.40;;
64996;Laerm;51545;51.568;6.998;2022-08-01T11:09:24;43.21;40.05;49.04;;
64996;Laerm;51545;51.568;6.998;2022-08-01T11:14:27;46.19;38.31;59.28;;
64996;Laerm;51545;51.568;6.998;2022-08-01T11:16:53;42.87;37.28;51.06;;
64996;Laerm;51545;51.568;6.998;2022-08-01T11:19:18;42.21;38.64;47.59;;
64996;Laerm;51545;51.568;6.998;2022-08-01T11:27:29;41.73;37.37;50.11;;
64996;Laerm;51545;51.568;6.998;2022-08-01T11:32:53;40.95;34.61;60.58;;
64996;Laerm;51545;51.568;6.998;2022-08-01T11:35:20;40.50;37.03;49.19;;
64996;Laerm;51545;51.568;6.998;2022-08-01T11:37:46;40.62;36.38;51.85;;
64996;Laerm;51545;51.568;6.998;2022-08-01T11:42:50;43.69;37.19;61.97;;
64996;Laerm;51545;51.568;6.998;2022-08-01T11:45:16;42.43;36.41;63.54;;
64996;Laerm;51545;51.568;6.998;2022-08-01T11:47:46;43.39;38.36;53.72;;
64996;Laerm;51545;51.568;6.998;2022-08-01T11:50:31;43.10;36.97;49.47;;
64996;Laerm;51545;51.568;6.998;2022-08-01T11:52:58;41.82;38.32;49.31;;
64996;Laerm;51545;51.568;6.998;2022-08-01T11:55:26;42.37;37.52;58.46;;
64996;Laerm;51545;51.568;6.998;2022-08-01T11:58:04;44.26;38.30;62.37;;
64996;Laerm;51545;51.568;6.998;2022-08-01T12:00:30;41.67;35.83;64.13;;
64996;Laerm;51545;51.568;6.998;2022-08-01T12:03:04;46.92;36.72;64.27;;
64996;Laerm;51545;51.568;6.998;2022-08-01T12:05:31;40.41;36.63;47.39;;
64996;Laerm;51545;51.568;6.998;2022-08-01T12:07:59;42.22;36.30;56.12;;
64996;Laerm;51545;51.568;6.998;2022-08-01T12:10:28;44.52;37.29;55.57;;
64996;Laerm;51545;51.568;6.998;2022-08-01T12:13:00;41.25;35.26;61.06;;
64996;Laerm;51545;51.568;6.998;2022-08-01T12:15:35;48.72;34.16;68.56;;
64996;Laerm;51545;51.568;6.998;2022-08-01T12:18:03;47.13;38.46;63.47;;
64996;Laerm;51545;51.568;6.998;2022-08-01T12:20:36;44.94;40.41;62.78;;
64996;Laerm;51545;51.568;6.998;2022-08-01T12:23:06;46.32;41.36;70.22;;
64996;Laerm;51545;51.568;6.998;2022-08-01T12:25:33;45.33;40.67;61.86;;
64996;Laerm;51545;51.568;6.998;2022-08-01T12:28:01;44.75;39.89;56.17;;
64996;Laerm;51545;51.568;6.998;2022-08-01T12:30:27;44.63;40.57;58.34;;
64996;Laerm;51545;51.568;6.998;2022-08-01T12:32:54;45.22;40.98;58.67;;
64996;Laerm;51545;51.568;6.998;2022-08-01T12:35:22;44.16;39.91;57.69;;
64996;Laerm;51545;51.568;6.998;2022-08-01T12:37:53;43.90;39.53;55.05;;
64996;Laerm;51545;51.568;6.998;2022-08-01T12:40:21;43.70;38.78;57.89;;
64996;Laerm;51545;51.568;6.998;2022-08-01T12:42:49;43.73;39.93;54.55;;
64996;Laerm;51545;51.568;6.998;2022-08-01T12:45:18;44.00;40.05;61.58;;
64996;Laerm;51545;51.568;6.998;2022-08-01T12:47:45;41.92;38.87;53.22;;
64996;Laerm;51545;51.568;6.998;2022-08-01T12:50:15;42.46;37.94;58.70;;
64996;Laerm;51545;51.568;6.998;2022-08-01T12:52:42;43.38;38.45;56.85;;
64996;Laerm;51545;51.568;6.998;2022-08-01T12:55:16;41.74;37.38;57.29;;
64996;Laerm;51545;51.568;6.998;2022-08-01T12:57:45;48.45;38.23;63.55;;
64996;Laerm;51545;51.568;6.998;2022-08-01T13:00:25;43.23;37.77;61.18;;
64996;Laerm;51545;51.568;6.998;2022-08-01T13:03:05;43.04;39.01;55.83;;
64996;Laerm;51545;51.568;6.998;2022-08-01T13:06:00;43.46;39.17;54.84;;
64996;Laerm;51545;51.568;6.998;2022-08-01T13:08:32;45.54;40.41;57.88;;
64996;Laerm;51545;51.568;6.998;2022-08-01T13:11:02;43.82;39.80;51.36;;
64996;Laerm;51545;51.568;6.998;2022-08-01T13:13:40;42.88;37.57;55.02;;
64996;Laerm;51545;51.568;6.998;2022-08-01T13:16:07;49.07;38.38;75.57;;
64996;Laerm;51545;51.568;6.998;2022-08-01T13:18:34;42.50;37.68;54.71;;
64996;Laerm;51545;51.568;6.998;2022-08-01T13:21:20;44.31;39.32;61.94;;
64996;Laerm;51545;51.568;6.998;2022-08-01T13:26:51;46.00;41.02;63.24;;
64996;Laerm;51545;51.568;6.998;2022-08-01T13:29:28;44.67;38.94;59.18;;
64996;Laerm;51545;51.568;6.998;2022-08-01T13:31:54;44.71;40.07;57.38;;
64996;Laerm;51545;51.568;6.998;2022-08-01T13:34:32;44.38;40.04;59.24;;
64996;Laerm;51545;51.568;6.998;2022-08-01T13:36:58;44.48;39.06;64.72;;
64996;Laerm;51545;51.568;6.998;2022-08-01T13:39:23;44.38;38.35;61.90;;
64996;Laerm;51545;51.568;6.998;2022-08-01T13:42:14;49.64;39.22;70.73;;
64996;Laerm;51545;51.568;6.998;2022-08-01T13:44:40;44.64;39.52;62.41;;
64996;Laerm;51545;51.568;6.998;2022-08-01T13:47:06;44.08;38.15;63.45;;
64996;Laerm;51545;51.568;6.998;2022-08-01T13:49:32;41.95;37.95;53.10;;
64996;Laerm;51545;51.568;6.998;2022-08-01T13:51:58;42.68;38.66;51.18;;
64996;Laerm;51545;51.568;6.998;2022-08-01T13:54:24;44.50;38.52;63.37;;
64996;Laerm;51545;51.568;6.998;2022-08-01T13:56:51;44.20;39.18;62.36;;
64996;Laerm;51545;51.568;6.998;2022-08-01T13:59:16;50.41;38.01;63.66;;
64996;Laerm;51545;51.568;6.998;2022-08-01T14:01:43;44.79;38.50;58.08;;
64996;Laerm;51545;51.568;6.998;2022-08-01T14:04:08;44.52;39.15;58.39;;
64996;Laerm;51545;51.568;6.998;2022-08-01T14:06:34;50.31;40.33;65.30;;
64996;Laerm;51545;51.568;6.998;2022-08-01T14:09:03;43.89;39.61;55.38;;
64996;Laerm;51545;51.568;6.998;2022-08-01T14:11:29;44.03;38.68;57.07;;
64996;Laerm;51545;51.568;6.998;2022-08-01T14:13:55;43.59;38.86;59.92;;
64996;Laerm;51545;51.568;6.998;2022-08-01T14:16:21;53.81;39.45;73.67;;
64996;Laerm;51545;51.568;6.998;2022-08-01T14:18:47;58.79;41.91;74.09;;
64996;Laerm;51545;51.568;6.998;2022-08-01T14:21:12;46.57;41.58;63.27;;